Time;durP1;ratioP1;P1;durP2;ratioP2;P2;SDS_P1;SDS_P2;PMS_P1;PMS_P2;Temp;Humidity;BMP_temperature;BMP_pressure;BME280_temperature;BME280_humidity;BME280_pressure;Samples;Min_cycle;Max_cycle;Signal;HPM_P1;HPM_P2
2024/03/03 00:02:24;;;;;;;55.85;30.52;;;;;;;14.80;100.00;101151.06;143723;659;47006;-67
2024/03/03 00:04:50;;;;;;;52.00;30.37;;;;;;;14.79;100.00;101145.87;143727;569;47002;-68
2024/03/03 00:07:17;;;;;;;47.65;31.08;;;;;;;14.78;100.00;101146.94;143723;594;47010;-66
2024/03/03 00:09:45;;;;;;;53.22;33.15;;;;;;;14.73;100.00;101153.00;143719;580;47004;-68
2024/03/03 00:12:12;;;;;;;52.72;30.67;;;;;;;14.70;100.00;101148.00;143723;653;46006;-69
2024/03/03 00:14:38;;;;;;;49.03;30.17;;;;;;;14.71;100.00;101149.69;143721;625;47002;-67
2024/03/03 00:17:04;;;;;;;52.67;32.13;;;;;;;14.76;100.00;101144.44;143722;600;47008;-67
2024/03/03 00:19:31;;;;;;;52.13;32.40;;;;;;;14.69;100.00;101157.97;143721;577;47008;-66
2024/03/03 00:21:57;;;;;;;56.50;34.90;;;;;;;14.63;100.00;101142.63;143724;581;46007;-67
2024/03/03 00:24:23;;;;;;;58.97;37.40;;;;;;;14.69;100.00;101146.34;143724;582;47002;-68
2024/03/03 00:26:50;;;;;;;51.53;33.50;;;;;;;14.62;100.00;101137.41;143722;586;47008;-67
2024/03/03 00:29:16;;;;;;;59.58;34.78;;;;;;;14.60;100.00;101144.91;143721;594;47004;-67
2024/03/03 00:31:43;;;;;;;53.67;32.92;;;;;;;14.56;100.00;101142.63;143721;596;47006;-69
2024/03/03 00:34:10;;;;;;;47.08;31.40;;;;;;;14.60;100.00;101137.63;143724;598;47004;-67
2024/03/03 00:36:36;;;;;;;53.38;30.45;;;;;;;14.60;100.00;101148.44;143721;573;47012;-67
2024/03/03 00:39:04;;;;;;;44.78;27.17;;;;;;;14.58;100.00;101144.28;143722;573;47006;-68
2024/03/03 00:41:30;;;;;;;39.97;24.52;;;;;;;14.55;100.00;101157.19;143723;607;47008;-67
2024/03/03 00:43:57;;;;;;;37.30;24.10;;;;;;;14.52;100.00;101156.78;143724;614;47005;-67
2024/03/03 00:46:23;;;;;;;39.45;24.05;;;;;;;14.51;100.00;101157.81;143723;625;47010;-67
2024/03/03 00:48:51;;;;;;;41.70;23.87;;;;;;;14.52;100.00;101152.22;143723;592;47010;-69
2024/03/03 00:51:17;;;;;;;37.40;24.37;;;;;;;14.52;100.00;101154.94;143722;597;47009;-68
2024/03/03 00:53:44;;;;;;;38.28;24.40;;;;;;;14.50;100.00;101148.06;143723;630;47004;-68
2024/03/03 00:56:10;;;;;;;41.10;25.52;;;;;;;14.49;100.00;101155.34;143722;574;47012;-67
2024/03/03 00:58:36;;;;;;;43.47;24.15;;;;;;;14.52;100.00;101151.38;143721;588;47007;-69
2024/03/03 01:01:03;;;;;;;42.17;23.23;;;;;;;14.48;100.00;101148.28;143722;567;47008;-67
2024/03/03 01:03:31;;;;;;;34.17;20.92;;;;;;;14.45;100.00;101147.88;143721;609;47004;-67
2024/03/03 01:05:58;;;;;;;27.83;18.98;;;;;;;14.40;100.00;101148.50;143722;594;47012;-69
2024/03/03 01:08:24;;;;;;;32.88;18.60;;;;;;;14.42;100.00;101156.41;143723;643;47006;-67
2024/03/03 01:10:51;;;;;;;30.58;16.52;;;;;;;14.42;100.00;101153.72;143724;582;47008;-67
2024/03/03 01:13:17;;;;;;;26.62;15.77;;;;;;;14.41;100.00;101147.47;143724;567;47006;-66
2024/03/03 01:15:43;;;;;;;23.58;13.88;;;;;;;14.42;100.00;101143.72;143725;579;46010;-67
2024/03/03 01:18:10;;;;;;;20.55;12.30;;;;;;;14.44;100.00;101143.53;143721;572;48004;-67
2024/03/03 01:20:36;;;;;;;28.87;13.73;;;;;;;14.47;100.00;101145.81;143724;574;46008;-67
2024/03/03 01:23:03;;;;;;;19.85;12.50;;;;;;;14.47;100.00;101135.00;143724;573;47012;-67
2024/03/03 01:25:29;;;;;;;22.27;13.77;;;;;;;14.47;100.00;101133.09;143720;574;47012;-68
2024/03/03 01:27:56;;;;;;;23.52;12.23;;;;;;;14.48;100.00;101128.50;143722;584;47006;-67
2024/03/03 01:30:22;;;;;;;19.98;10.80;;;;;;;14.43;100.00;101136.47;143724;607;46008;-67
2024/03/03 01:32:48;;;;;;;20.90;12.23;;;;;;;14.47;100.00;101132.28;143723;589;47004;-68
2024/03/03 01:35:15;;;;;;;19.73;9.45;;;;;;;14.43;100.00;101137.28;143723;600;47011;-69
2024/03/03 01:37:42;;;;;;;20.05;9.52;;;;;;;14.40;100.00;101129.59;143721;617;47006;-69
2024/03/03 01:40:10;;;;;;;21.60;11.02;;;;;;;14.42;100.00;101118.59;143723;566;47008;-67
2024/03/03 01:42:37;;;;;;;20.62;10.00;;;;;;;14.36;100.00;101114.87;143724;584;47006;-68
2024/03/03 01:45:03;;;;;;;27.25;10.70;;;;;;;14.31;100.00;101114.66;143721;587;47010;-67
2024/03/03 01:47:30;;;;;;;13.10;6.62;;;;;;;14.33;100.00;101113.41;143721;586;47006;-68
2024/03/03 01:49:59;;;;;;;12.95;5.90;;;;;;;14.36;100.00;101112.97;143723;589;47008;-70
2024/03/03 01:52:28;;;;;;;11.85;6.37;;;;;;;14.39;100.00;101114.41;143721;626;47004;-67
2024/03/03 01:54:55;;;;;;;15.25;6.30;;;;;;;14.40;100.00;101099.88;143722;629;47010;-67
2024/03/03 01:57:22;;;;;;;17.58;6.72;;;;;;;14.42;100.00;101105.06;143721;607;47006;-67
2024/03/03 01:59:51;;;;;;;15.02;6.18;;;;;;;14.33;100.00;101101.78;143723;569;47008;-67
2024/03/03 02:02:18;;;;;;;13.77;6.32;;;;;;;14.27;100.00;101105.31;143722;589;47006;-67
2024/03/03 02:04:44;;;;;;;12.80;6.47;;;;;;;14.30;100.00;101094.09;143716;566;47004;-68
2024/03/03 02:07:11;;;;;;;15.30;6.57;;;;;;;14.31;100.00;101101.97;143712;594;48004;-67
2024/03/03 02:09:39;;;;;;;13.32;6.32;;;;;;;14.36;100.00;101099.47;143708;579;46925;-68
2024/03/03 02:12:06;;;;;;;19.02;7.75;;;;;;;14.45;100.00;101104.66;143717;633;46008;-68
2024/03/03 02:14:32;;;;;;;19.48;8.25;;;;;;;14.50;100.00;101099.41;143717;575;46927;-67
2024/03/03 02:16:58;;;;;;;15.70;7.60;;;;;;;14.54;100.00;101098.78;143717;579;46936;-69
2024/03/03 02:19:24;;;;;;;21.23;8.50;;;;;;;14.58;100.00;101104.56;143716;597;46934;-68
2024/03/03 02:21:51;;;;;;;21.12;8.18;;;;;;;14.62;100.00;101110.38;143714;654;46009;-66
2024/03/03 02:24:17;;;;;;;16.98;7.85;;;;;;;14.64;100.00;101114.53;143713;617;47006;-67
2024/03/03 02:26:43;;;;;;;16.55;7.10;;;;;;;14.68;100.00;101110.34;143712;571;47006;-67
2024/03/03 02:29:09;;;;;;;15.18;7.07;;;;;;;14.72;100.00;101105.38;143713;599;46925;-65
2024/03/03 02:31:36;;;;;;;14.10;6.78;;;;;;;14.75;100.00;101112.22;143726;594;46017;-67
2024/03/03 02:34:02;;;;;;;16.20;6.28;;;;;;;14.75;100.00;101121.13;143724;670;47010;-67
2024/03/03 02:36:29;;;;;;;15.00;6.20;;;;;;;14.68;100.00;101131.19;143718;599;47015;-66
2024/03/03 02:38:57;;;;;;;13.02;5.37;;;;;;;14.61;100.00;101120.38;143722;614;47008;-66
2024/03/03 02:41:23;;;;;;;12.37;5.50;;;;;;;14.52;100.00;101125.19;143724;566;47004;-67
2024/03/03 02:43:50;;;;;;;14.98;5.35;;;;;;;14.54;100.00;101128.50;143723;586;47012;-66
2024/03/03 02:46:16;;;;;;;13.30;5.32;;;;;;;14.49;100.00;101132.88;143721;572;47006;-65
2024/03/03 02:48:42;;;;;;;13.98;4.78;;;;;;;14.53;100.00;101136.81;143724;619;47008;-67
2024/03/03 02:51:09;;;;;;;10.15;5.32;;;;;;;14.44;100.00;101138.94;143723;590;47005;-66
2024/03/03 02:53:37;;;;;;;12.37;5.70;;;;;;;14.44;100.00;101130.00;143724;568;47010;-68
2024/03/03 02:56:07;;;;;;;18.40;7.50;;;;;;;14.37;100.00;101138.16;143722;649;47006;-68
2024/03/03 02:58:33;;;;;;;16.55;5.80;;;;;;;14.31;100.00;101130.88;143724;612;46009;-67
2024/03/03 03:01:00;;;;;;;15.55;6.00;;;;;;;14.37;100.00;101133.56;143723;567;47004;-67
2024/03/03 03:03:26;;;;;;;14.98;5.37;;;;;;;14.30;100.00;101132.75;143724;590;47010;-68
2024/03/03 03:05:52;;;;;;;9.52;4.72;;;;;;;14.27;100.00;101135.88;143722;584;47006;-68
2024/03/03 03:08:19;;;;;;;9.75;4.20;;;;;;;14.28;100.00;101139.41;143724;643;46008;-67
2024/03/03 03:10:46;;;;;;;10.63;4.55;;;;;;;14.24;100.00;101136.31;143723;632;47004;-67
2024/03/03 03:13:12;;;;;;;12.27;5.03;;;;;;;14.16;100.00;101140.06;143723;624;46927;-68
2024/03/03 03:15:39;;;;;;;12.70;5.55;;;;;;;14.13;100.00;101134.25;143722;633;47006;-68
2024/03/03 03:18:05;;;;;;;12.80;4.85;;;;;;;14.09;100.00;101140.09;143722;572;47925;-67
2024/03/03 03:20:33;;;;;;;17.50;7.87;;;;;;;14.08;100.00;101135.75;143724;574;47004;-67
2024/03/03 03:23:00;;;;;;;19.52;11.00;;;;;;;14.02;100.00;101135.75;143722;641;47008;-67
2024/03/03 03:25:26;;;;;;;20.35;11.00;;;;;;;13.95;100.00;101133.88;143721;649;47004;-68
2024/03/03 03:27:53;;;;;;;19.42;9.93;;;;;;;13.93;100.00;101135.97;143723;580;47006;-67
2024/03/03 03:30:19;;;;;;;23.52;9.98;;;;;;;13.91;100.00;101135.34;143722;594;47002;-66
2024/03/03 03:32:46;;;;;;;22.42;9.98;;;;;;;13.92;100.00;101134.31;143723;581;47010;-67
2024/03/03 03:35:12;;;;;;;23.48;10.05;;;;;;;13.90;100.00;101130.97;143722;590;47004;-67
2024/03/03 03:37:39;;;;;;;25.90;10.40;;;;;;;13.87;100.00;101128.69;143724;581;47006;-66
2024/03/03 03:40:09;;;;;;;18.35;9.52;;;;;;;13.92;100.00;101126.19;143725;592;47004;-68
2024/03/03 03:42:37;;;;;;;22.80;11.73;;;;;;;13.88;100.00;101103.34;143722;618;47009;-67
2024/03/03 03:45:05;;;;;;;25.20;11.25;;;;;;;13.83;100.00;101108.59;143721;581;47004;-68
2024/03/03 03:47:32;;;;;;;36.05;15.00;;;;;;;13.82;100.00;101104.22;143722;620;47006;-66
2024/03/03 03:49:59;;;;;;;53.13;22.17;;;;;;;13.77;100.00;101107.53;143723;585;47004;-67
2024/03/03 03:52:25;;;;;;;49.53;21.05;;;;;;;13.76;100.00;101119.41;143721;656;47011;-67
2024/03/03 03:54:52;;;;;;;51.35;22.85;;;;;;;13.73;100.00;101106.31;143722;628;47004;-67
2024/03/03 03:57:18;;;;;;;49.40;24.17;;;;;;;13.74;100.00;101113.38;143725;652;46021;-67
2024/03/03 03:59:45;;;;;;;45.95;21.52;;;;;;;13.74;100.00;101117.94;143724;640;47002;-68
2024/03/03 04:02:11;;;;;;;38.95;19.15;;;;;;;13.74;100.00;101109.81;143724;590;46010;-67
2024/03/03 04:04:37;;;;;;;37.90;17.48;;;;;;;13.68;100.00;101121.47;143722;612;47004;-66
2024/03/03 04:07:04;;;;;;;34.47;17.45;;;;;;;13.66;100.00;101115.47;143720;589;47006;-69
2024/03/03 04:09:31;;;;;;;37.53;17.55;;;;;;;13.71;100.00;101119.19;143724;588;47006;-67
2024/03/03 04:11:58;;;;;;;37.38;17.60;;;;;;;13.76;100.00;101114.00;143726;585;46016;-67
2024/03/03 04:14:25;;;;;;;26.73;13.80;;;;;;;13.76;100.00;101113.16;143721;586;47004;-67
2024/03/03 04:16:52;;;;;;;27.42;10.90;;;;;;;13.72;100.00;101117.31;143723;730;46019;-68
2024/03/03 04:19:18;;;;;;;26.37;10.32;;;;;;;13.69;100.00;101123.12;143723;589;47004;-68
2024/03/03 04:21:45;;;;;;;20.25;10.30;;;;;;;13.65;100.00;101122.72;143723;591;47011;-67
2024/03/03 04:24:11;;;;;;;22.35;9.57;;;;;;;13.64;100.00;101121.91;143722;589;47004;-68
2024/03/03 04:26:38;;;;;;;20.50;10.27;;;;;;;13.62;100.00;101120.44;143725;590;47006;-67
2024/03/03 04:29:04;;;;;;;20.12;10.07;;;;;;;13.63;100.00;101114.84;143723;629;47002;-67
2024/03/03 04:31:31;;;;;;;28.05;11.48;;;;;;;13.57;100.00;101112.16;143723;596;47008;-67
2024/03/03 04:33:57;;;;;;;27.17;11.52;;;;;;;13.55;100.00;101123.12;143723;574;47004;-67
2024/03/03 04:36:23;;;;;;;22.87;10.25;;;;;;;13.52;100.00;101112.75;143725;600;46009;-66
2024/03/03 04:38:50;;;;;;;24.42;9.82;;;;;;;13.51;100.00;101121.87;143726;640;47002;-67
2024/03/03 04:41:18;;;;;;;25.35;10.45;;;;;;;13.50;100.00;101120.25;143721;653;48009;-68
2024/03/03 04:43:45;;;;;;;18.67;9.88;;;;;;;13.51;100.00;101116.47;143724;620;47004;-67
2024/03/03 04:46:12;;;;;;;27.77;9.95;;;;;;;13.54;100.00;101113.38;143723;584;47006;-67
2024/03/03 04:48:39;;;;;;;23.30;8.98;;;;;;;13.53;100.00;101122.50;143725;633;47004;-67
2024/03/03 04:51:08;;;;;;;24.70;9.45;;;;;;;13.56;100.00;101130.19;143726;584;47011;-68
2024/03/03 04:53:35;;;;;;;23.50;9.88;;;;;;;13.51;100.00;101126.47;143723;575;47004;-67
2024/03/03 04:56:01;;;;;;;21.33;8.20;;;;;;;13.54;100.00;101121.47;143727;567;46006;-67
2024/03/03 04:58:28;;;;;;;17.90;8.82;;;;;;;13.53;100.00;101129.78;143725;586;47002;-68
2024/03/03 05:00:54;;;;;;;21.77;8.98;;;;;;;13.51;100.00;101127.28;143724;602;47010;-67
2024/03/03 05:03:22;;;;;;;21.15;8.60;;;;;;;13.52;100.00;101137.03;143724;646;47004;-67
2024/03/03 05:05:49;;;;;;;18.67;9.00;;;;;;;13.57;100.00;101129.16;143719;622;48007;-67
2024/03/03 05:08:15;;;;;;;18.87;7.85;;;;;;;13.53;100.00;101133.31;143728;581;47002;-67
2024/03/03 05:10:42;;;;;;;33.60;23.98;;;;;;;13.53;100.00;101135.19;143726;590;46008;-67
2024/03/03 05:13:08;;;;;;;32.53;25.40;;;;;;;13.52;100.00;101141.63;143724;589;47004;-67
2024/03/03 05:15:34;;;;;;;31.87;21.20;;;;;;;13.53;100.00;101141.41;143725;656;47006;-67
2024/03/03 05:18:01;;;;;;;30.92;18.08;;;;;;;13.58;100.00;101144.31;143726;643;47002;-67
2024/03/03 05:20:27;;;;;;;24.25;16.15;;;;;;;13.61;100.00;101143.91;143720;588;47009;-68
2024/03/03 05:22:54;;;;;;;25.50;16.42;;;;;;;13.66;100.00;101145.16;143723;583;47004;-66
2024/03/03 05:25:20;;;;;;;24.15;13.95;;;;;;;13.70;100.00;101144.53;143723;572;47006;-66
2024/03/03 05:27:47;;;;;;;16.77;7.60;;;;;;;13.63;100.00;101141.81;143726;580;47002;-68
2024/03/03 05:30:13;;;;;;;17.83;6.65;;;;;;;13.61;100.00;101148.44;143722;581;47010;-67
2024/03/03 05:32:40;;;;;;;14.18;6.37;;;;;;;13.59;100.00;101151.38;143721;594;47004;-68
2024/03/03 05:35:06;;;;;;;15.98;6.68;;;;;;;13.64;100.00;101146.19;143725;599;47006;-68
2024/03/03 05:37:33;;;;;;;16.90;7.10;;;;;;;13.70;100.00;101151.78;143724;575;47002;-68
2024/03/03 05:39:59;;;;;;;20.05;6.12;;;;;;;13.68;100.00;101148.47;143724;616;47010;-68
2024/03/03 05:42:26;;;;;;;14.32;6.22;;;;;;;13.75;100.00;101146.59;143723;632;47004;-68
2024/03/03 05:44:52;;;;;;;21.25;7.70;;;;;;;13.81;100.00;101151.16;143726;569;46006;-66
2024/03/03 05:47:19;;;;;;;15.75;7.37;;;;;;;13.84;100.00;101150.75;143726;578;47004;-66
2024/03/03 05:49:48;;;;;;;20.02;7.40;;;;;;;13.89;100.00;101147.41;143724;599;47010;-68
2024/03/03 05:52:14;;;;;;;19.77;8.27;;;;;;;14.00;100.00;101141.34;143724;623;47004;-67
2024/03/03 05:54:41;;;;;;;18.00;8.95;;;;;;;14.05;100.00;101146.13;143724;658;47006;-68
2024/03/03 05:57:07;;;;;;;18.33;9.32;;;;;;;14.12;100.00;101152.34;143724;569;47004;-68
2024/03/03 05:59:34;;;;;;;17.83;9.30;;;;;;;14.17;100.00;101149.00;143723;609;47010;-67
2024/03/03 06:02:01;;;;;;;19.20;8.52;;;;;;;14.28;100.00;101156.47;143724;579;47004;-68
2024/03/03 06:04:27;;;;;;;18.52;8.98;;;;;;;14.36;100.00;101158.09;143722;569;47007;-67
2024/03/03 06:06:54;;;;;;;17.90;8.23;;;;;;;14.41;100.00;101160.97;143724;592;47011;-67
2024/03/03 06:09:20;;;;;;;21.37;9.05;;;;;;;14.45;100.00;101166.81;143724;617;47010;-67
2024/03/03 06:11:47;;;;;;;21.40;9.15;;;;;;;14.49;100.00;101170.72;143724;640;47004;-67
2024/03/03 06:14:14;;;;;;;20.58;9.45;;;;;;;14.56;100.00;101172.34;143725;584;46006;-67
2024/03/03 06:16:42;;;;;;;22.77;8.68;;;;;;;14.62;100.00;101170.69;143726;569;47002;-67
2024/03/03 06:19:08;;;;;;;23.33;8.43;;;;;;;14.68;100.00;101171.72;143724;591;47008;-67
2024/03/03 06:21:35;;;;;;;21.77;8.93;;;;;;;14.77;100.00;101175.03;143724;574;47004;-67
2024/03/03 06:24:01;;;;;;;17.65;8.40;;;;;;;14.80;100.00;101178.09;143726;590;47006;-68
2024/03/03 06:26:33;;;;;;;15.23;7.22;;;;;;;14.85;100.00;101186.41;143725;615;47003;-67
2024/03/03 06:29:00;;;;;;;19.90;6.70;;;;;;;14.95;100.00;101183.25;143725;582;47008;-68
2024/03/03 06:31:26;;;;;;;18.48;8.75;;;;;;;15.05;100.00;101187.34;143720;588;49929;-67
2024/03/03 06:33:53;;;;;;;17.55;9.63;;;;;;;15.14;100.00;101186.88;143722;578;47006;-68
2024/03/03 06:36:20;;;;;;;22.15;10.80;;;;;;;15.20;100.00;101190.56;143724;586;47004;-67
2024/03/03 06:52:03;;;;;;;22.87;9.02;;;;;;;16.01;100.00;101188.09;143770;572;50008;-79
2024/03/03 06:54:30;;;;;;;18.80;7.12;;;;;;;16.17;100.00;101192.13;143717;607;50008;-81
2024/03/03 06:56:56;;;;;;;17.62;7.95;;;;;;;16.28;100.00;101190.53;143722;591;47011;-81
2024/03/03 06:59:22;;;;;;;14.13;7.25;;;;;;;16.39;100.00;101188.12;143713;579;57004;-81
2024/03/03 07:01:48;;;;;;;21.30;6.20;;;;;;;16.49;100.00;101191.97;143723;580;51004;-82
2024/03/03 07:04:26;;;;;;;13.13;5.28;;;;;;;16.61;100.00;101197.47;143731;601;46015;-81
2024/03/03 07:06:56;;;;;;;18.75;6.68;;;;;;;16.74;100.00;101195.63;143731;615;47010;-81
2024/03/03 07:09:23;;;;;;;18.75;6.62;;;;;;;16.79;100.00;101188.47;143727;574;49004;-82
2024/03/03 07:11:54;;;;;;;15.02;4.60;;;;;;;16.88;100.00;101177.31;143733;658;47009;-82
2024/03/03 07:14:22;;;;;;;16.30;5.20;;;;;;;16.96;100.00;101182.44;143737;665;46004;-81
2024/03/03 07:16:49;;;;;;;16.50;7.00;;;;;;;17.02;100.00;101180.72;143733;566;46010;-81
2024/03/03 07:19:16;;;;;;;13.80;5.65;;;;;;;17.08;100.00;101183.31;143735;573;46004;-81
2024/03/03 07:21:43;;;;;;;16.08;6.28;;;;;;;17.17;100.00;101182.97;143736;586;45922;-81
2024/03/03 07:24:10;;;;;;;12.93;7.65;;;;;;;17.19;100.00;101178.16;143739;580;45020;-81
2024/03/03 07:26:37;;;;;;;17.70;7.87;;;;;;;17.25;100.00;101183.47;143736;656;45924;-82
2024/03/03 07:29:05;;;;;;;18.42;7.00;;;;;;;17.27;100.00;101183.25;143730;592;48006;-81
2024/03/03 07:31:31;;;;;;;14.63;6.62;;;;;;;17.34;100.00;101189.41;143735;587;45922;-80
2024/03/03 07:33:59;;;;;;;17.52;8.40;;;;;;;17.47;100.00;101190.28;143733;569;48006;-82
2024/03/03 07:36:25;;;;;;;25.23;8.38;;;;;;;17.52;100.00;101193.09;143731;574;48012;-82
2024/03/03 07:38:53;;;;;;;22.33;7.75;;;;;;;17.58;100.00;101190.28;143724;596;52004;-80
2024/03/03 07:41:22;;;;;;;18.95;8.25;;;;;;;17.70;100.00;101189.47;143733;605;47008;-81
2024/03/03 07:43:49;;;;;;;21.42;9.52;;;;;;;17.75;100.00;101192.28;143738;660;47004;-82
2024/03/03 07:46:17;;;;;;;17.42;8.70;;;;;;;17.76;100.00;101201.28;143734;584;46010;-81
2024/03/03 07:48:44;;;;;;;22.15;8.52;;;;;;;17.81;100.00;101198.69;143733;662;46006;-83
2024/03/03 07:51:12;;;;;;;25.35;10.13;;;;;;;17.99;100.00;101197.78;143734;589;46921;-81
2024/03/03 07:53:39;;;;;;;19.33;8.80;;;;;;;18.10;100.00;101198.84;143732;575;45012;-84
2024/03/03 07:56:06;;;;;;;21.12;9.75;;;;;;;18.24;100.00;101202.16;143728;619;47012;-81
2024/03/03 07:58:36;;;;;;;20.05;10.55;;;;;;;18.37;100.00;101204.59;143736;567;45932;-82
2024/03/03 08:01:04;;;;;;;19.45;11.80;;;;;;;18.38;100.00;101202.69;143727;588;47008;-82
2024/03/03 08:03:31;;;;;;;26.30;11.35;;;;;;;18.39;100.00;101201.62;143721;567;50009;-82
2024/03/03 08:05:57;;;;;;;21.98;11.75;;;;;;;18.46;100.00;101208.59;143729;599;45923;-82
2024/03/03 08:08:24;;;;;;;19.00;11.02;;;;;;;18.56;100.00;101205.25;143729;568;46004;-82
2024/03/03 08:10:51;;;;;;;23.38;11.40;;;;;;;18.74;100.00;101209.72;143725;618;47005;-80
2024/03/03 08:13:21;;;;;;;20.80;12.13;;;;;;;18.87;100.00;101210.50;143728;577;47006;-83
2024/03/03 08:15:48;;;;;;;21.12;11.15;;;;;;;18.94;100.00;101206.59;143729;566;45923;-82
2024/03/03 08:18:15;;;;;;;25.15;10.45;;;;;;;18.90;100.00;101213.56;143727;593;46004;-83
2024/03/03 08:20:42;;;;;;;25.10;11.68;;;;;;;19.05;100.00;101210.34;143723;593;47008;-83
2024/03/03 08:23:09;;;;;;;20.10;11.10;;;;;;;19.19;100.00;101207.31;143731;604;47004;-83
2024/03/03 08:25:36;;;;;;;28.30;12.48;;;;;;;19.32;100.00;101209.75;143729;567;45924;-81
2024/03/03 08:28:05;;;;;;;21.00;10.82;;;;;;;19.46;100.00;101199.34;143727;586;47004;-81
2024/03/03 08:30:32;;;;;;;23.35;12.20;;;;;;;19.59;100.00;101203.66;143729;579;45921;-82
2024/03/03 08:32:58;;;;;;;30.12;13.25;;;;;;;19.73;100.00;101211.50;143732;595;46004;-81
2024/03/03 08:35:25;;;;;;;25.95;13.02;;;;;;;19.93;100.00;101205.59;143724;610;47010;-81
2024/03/03 08:37:53;;;;;;;28.27;12.07;;;;;;;19.96;100.00;101205.06;143728;582;46931;-81
2024/03/03 08:40:20;;;;;;;26.40;11.50;;;;;;;19.99;100.00;101204.56;143724;646;47009;-81
2024/03/03 08:42:46;;;;;;;32.90;11.38;;;;;;;20.01;100.00;101205.16;143722;620;48002;-82
2024/03/03 08:45:13;;;;;;;23.85;10.63;;;;;;;19.85;100.00;101213.06;143722;579;52923;-81
2024/03/03 08:47:41;;;;;;;23.55;11.55;;;;;;;20.05;100.00;101211.75;143726;573;47004;-80
2024/03/03 08:50:09;;;;;;;18.75;10.27;;;;;;;20.20;100.00;101204.88;143728;572;46921;-81
2024/03/03 08:52:36;;;;;;;23.80;10.30;;;;;;;20.36;100.00;101214.09;143729;609;47006;-81
2024/03/03 08:55:04;;;;;;;23.35;8.73;;;;;;;20.53;100.00;101206.69;143720;574;49012;-82
2024/03/03 08:57:31;;;;;;;20.50;8.02;;;;;;;20.84;100.00;101200.78;143735;573;46004;-81
2024/03/03 08:59:57;;;;;;;19.35;8.27;;;;;;;21.03;100.00;101209.47;143729;594;47008;-81
2024/03/03 09:02:25;;;;;;;13.10;7.20;;;;;;;21.19;100.00;101213.16;143736;628;47006;-81
2024/03/03 09:04:52;;;;;;;16.92;7.60;;;;;;;20.96;100.00;101220.59;143731;596;46010;-82
2024/03/03 09:07:19;;;;;;;19.17;6.57;;;;;;;20.88;100.00;101221.88;143733;947;47004;-81
2024/03/03 09:28:23;;;;;;;13.32;6.18;;;;;;;29.11;76.46;101079.81;143776;630;46010;-75
2024/03/03 09:30:49;;;;;;;15.70;6.57;;;;;;;31.71;61.81;101106.84;143727;591;46012;-75
2024/03/03 09:33:15;;;;;;;17.00;6.12;;;;;;;31.36;57.98;101182.69;143726;572;46010;-74
2024/03/03 09:35:41;;;;;;;11.07;6.10;;;;;;;29.98;58.96;101217.06;143724;648;46021;-76
2024/03/03 09:38:07;;;;;;;14.38;6.32;;;;;;;28.78;59.58;101209.16;143726;978;48017;-73
2024/03/03 09:40:36;;;;;;;15.48;5.85;;;;;;;28.53;60.94;101206.63;143731;576;46012;-74
2024/03/03 09:43:03;;;;;;;17.17;6.75;;;;;;;28.19;62.21;101212.56;143726;599;47006;-74
2024/03/03 09:45:30;;;;;;;15.80;5.75;;;;;;;27.51;63.03;101205.47;143724;685;48006;-74
2024/03/03 09:48:01;;;;;;;13.02;5.78;;;;;;;26.82;63.58;101210.66;143728;589;48008;-75
2024/03/03 09:50:27;;;;;;;18.80;5.95;;;;;;;26.56;63.81;101206.28;143731;570;47004;-74
2024/03/03 09:52:57;;;;;;;19.65;6.07;;;;;;;26.36;65.51;101201.03;143726;591;46027;-74
2024/03/03 09:55:30;;;;;;;13.55;5.28;;;;;;;26.44;66.91;101200.38;143728;578;48004;-74
2024/03/03 09:57:57;;;;;;;20.60;6.20;;;;;;;26.33;66.38;101202.44;143728;598;47008;-73
2024/03/03 10:00:24;;;;;;;14.25;5.28;;;;;;;26.30;68.26;101203.84;143730;598;47006;-73
2024/03/03 10:02:52;;;;;;;15.73;5.53;;;;;;;25.85;68.15;101197.72;143725;684;48006;-74
2024/03/03 10:05:20;;;;;;;16.95;5.15;;;;;;;25.66;70.11;101197.59;143724;588;48006;-74
2024/03/03 10:07:55;;;;;;;20.33;5.60;;;;;;;25.52;69.18;101192.78;143731;576;47008;-75
2024/03/03 10:10:26;;;;;;;14.23;5.00;;;;;;;25.33;71.93;101195.38;143728;598;50008;-74
2024/03/03 10:12:54;;;;;;;16.10;5.30;;;;;;;24.86;70.95;101203.13;143731;729;46010;-73
2024/03/03 10:15:21;;;;;;;39.45;27.85;;;;;;;24.46;70.16;101211.22;143727;588;47006;-72
2024/03/03 10:17:47;;;;;;;11.38;5.97;;;;;;;24.37;69.49;101210.19;143723;588;47008;-73
2024/03/03 10:20:14;;;;;;;13.13;5.07;;;;;;;24.53;72.22;101209.00;143733;592;46008;-71
2024/03/03 10:22:43;;;;;;;19.73;13.00;;;;;;;24.22;72.61;101208.28;143729;655;47010;-73
2024/03/03 10:25:18;;;;;;;19.05;5.47;;;;;;;24.26;71.64;101205.84;143718;610;49006;-71
2024/03/03 10:27:49;;;;;;;17.17;10.02;;;;;;;24.31;73.44;101203.06;143728;583;47008;-71
2024/03/03 10:30:21;;;;;;;11.98;5.70;;;;;;;24.15;70.36;101196.81;143724;622;47006;-72
2024/03/03 10:32:49;;;;;;;14.20;5.05;;;;;;;24.01;70.69;101194.62;143729;580;47010;-71
2024/03/03 10:35:18;;;;;;;18.67;6.93;;;;;;;23.99;70.99;101193.28;143716;682;51010;-73
2024/03/03 10:38:01;;;;;;;16.10;5.25;;;;;;;23.94;70.17;101191.34;143728;602;47008;-73
2024/03/03 10:40:28;;;;;;;16.30;5.35;;;;;;;23.94;71.76;101185.84;143730;589;47009;-72
2024/03/03 10:42:55;;;;;;;24.98;11.20;;;;;;;24.01;71.03;101171.88;143729;569;47010;-73
2024/03/03 10:45:21;;;;;;;18.73;4.87;;;;;;;24.04;70.60;101174.88;143710;594;49008;-71
2024/03/03 10:47:51;;;;;;;15.15;4.87;;;;;;;24.06;73.78;101175.41;143730;572;46008;-73
2024/03/03 10:50:22;;;;;;;12.30;4.68;;;;;;;24.11;72.98;101165.53;143732;579;47006;-72
2024/03/03 10:52:50;;;;;;;16.17;4.87;;;;;;;24.36;73.23;101164.62;143727;581;47011;-73
2024/03/03 10:55:16;;;;;;;17.05;4.25;;;;;;;24.47;72.08;101159.91;143723;637;47006;-72
2024/03/03 10:57:44;;;;;;;13.02;4.90;;;;;;;24.35;72.43;101150.06;143731;611;46020;-71
2024/03/03 11:00:24;;;;;;;13.07;4.15;;;;;;;24.36;71.03;101151.69;143731;692;47004;-70
2024/03/03 11:02:51;;;;;;;16.33;4.40;;;;;;;24.31;70.97;101140.75;143726;615;48010;-70
2024/03/03 11:05:18;;;;;;;12.37;4.82;;;;;;;24.32;72.01;101147.06;143728;568;48006;-69
2024/03/03 11:07:45;;;;;;;16.58;6.07;;;;;;;24.24;70.97;101134.72;143730;581;46008;-71
2024/03/03 11:10:12;;;;;;;12.82;6.22;;;;;;;24.32;71.10;101134.16;143732;587;47004;-72
2024/03/03 11:12:44;;;;;;;13.30;5.80;;;;;;;24.25;70.72;101139.13;143730;578;47010;-72
2024/03/03 11:15:16;;;;;;;15.60;5.35;;;;;;;24.18;70.44;101124.91;143728;577;48006;-72
2024/03/03 11:17:47;;;;;;;18.55;5.87;;;;;;;24.20;71.00;101126.25;143727;602;47008;-72
2024/03/03 11:20:20;;;;;;;14.52;5.25;;;;;;;24.05;70.78;101121.63;143732;736;47004;-71
2024/03/03 11:23:09;;;;;;;13.07;5.20;;;;;;;24.09;70.45;101110.94;143729;585;47010;-72
2024/03/03 11:25:46;;;;;;;13.57;5.65;;;;;;;23.90;70.64;101122.50;143730;685;47010;-73
2024/03/03 11:28:21;;;;;;;15.63;6.32;;;;;;;23.67;71.39;101128.56;143729;577;47008;-74
2024/03/03 11:30:48;;;;;;;16.75;7.95;;;;;;;23.60;72.56;101110.47;143731;586;49002;-73
2024/03/03 11:33:15;;;;;;;12.98;6.15;;;;;;;23.81;73.48;101110.44;143728;598;47010;-73
2024/03/03 11:35:42;;;;;;;18.75;6.68;;;;;;;23.91;73.18;101106.84;143726;579;49004;-75
2024/03/03 11:38:08;;;;;;;11.38;5.45;;;;;;;23.82;72.78;101109.34;143729;586;47923;-74
2024/03/03 11:40:35;;;;;;;15.45;6.20;;;;;;;23.91;73.72;101102.19;143730;637;47004;-75